Flight Track Log - Related Links

Times and Time Zones

All times are in EDT time to prevent confusion due to time zone crossing. See the NCA132 flight status page for this flight to view local times or setup timezone preferences in your user account.

Time Position Orientation Groundspeed Altitude Reporting Facility
EDT Latitude Longitude Course Direction KTS MPH feet Rate Location/Type
Thu 04:18:02 AM 61.1790 -150.0030 270° West 119 137 400  Level FlightAware ADS-B
Thu 04:18:32 AM 61.2020 -150.0160 345° North 197 227 800 1,855 Climbing FlightAware ADS-B
Thu 04:18:57 AM 61.2240 -150.0340 339° North 204 235 2,100 2,509 Climbing FlightAware ADS-B
Thu 04:19:27 AM 61.2480 -150.0720 323° Northwest 234 269 3,100 1,900 Climbing FlightAware ADS-B
Thu 04:19:57 AM 61.2740 -150.1170 320° Northwest 252 290 4,000 1,418 Climbing FlightAware ADS-B
Thu 04:20:22 AM 61.2990 -150.1500 328° Northwest 281 323 4,400 1,029 Climbing FlightAware ADS-B
Thu 04:20:32 AM 61.3090 -150.1520 355° North 286 329 4,600 2,400 Climbing FlightAware ADS-B
Thu 04:20:52 AM 61.3370 -150.1330 18° North 294 338 5,600 2,600 Climbing FlightAware ADS-B
Thu 04:21:02 AM 61.3450 -150.1170 44° Northeast 298 343 5,900 2,640 Climbing FlightAware ADS-B
Thu 04:21:17 AM 61.3540 -150.0790 64° Northeast 297 342 6,700 3,120 Climbing FlightAware ADS-B
Thu 04:21:27 AM 61.3560 -150.0510 82° East 296 341 7,200 2,600 Climbing FlightAware ADS-B
Thu 04:21:47 AM 61.3540 -150.0020 95° East 296 341 8,000 2,550 Climbing FlightAware ADS-B
Thu 04:22:07 AM 61.3490 -149.9360 99° East 305 351 8,900 2,486 Climbing FlightAware ADS-B
Thu 04:22:57 AM 61.3390 -149.7810 98° East 330 380 10,900 1,906 Climbing FlightAware ADS-B
Thu 04:23:32 AM 61.3310 -149.6700 98° East 364 419 11,600 1,125 Climbing FlightAware ADS-B
Thu 04:24:17 AM 61.3190 -149.5100 99° East 408 470 12,400 1,579 Climbing FlightAware ADS-B
Thu 04:25:07 AM 61.3040 -149.3040 99° East 435 501 14,100 2,084 Climbing FlightAware ADS-B
Thu 04:25:52 AM 61.2890 -149.1070 99° East 449 517 15,700 1,976 Climbing FlightAware ADS-B
Thu 04:26:32 AM 61.2760 -148.9330 99° East 466 536 16,900 1,835 Climbing FlightAware ADS-B
Thu 04:27:17 AM 61.2610 -148.7440 99° East 475 547 18,300 1,976 Climbing FlightAware ADS-B
Thu 04:27:57 AM 61.2460 -148.5540 99° East 483 556 19,700 1,280 Climbing FlightAware ADS-B
Thu 04:28:32 AM 61.2350 -148.4210 100° East 485 558 19,900 141 Climbing FlightAware ADS-B
Thu 04:29:22 AM 61.2180 -148.2260 100° East 485 558 19,900  Level FlightAware ADS-B
Thu 04:30:02 AM 61.2050 -148.0700 100° East 485 558 19,900 2,700 Level FlightAware ADS-B
Thu 04:30:42 AM 61.1830 -147.7840 99° East 512 589 23,500 2,700 Climbing FlightAware ADS-B
Thu 04:31:22 AM 61.1710 -147.6190 99° East 512 589 23,500  Level FlightAware ADS-B
Thu 04:32:02 AM 61.1580 -147.4550 99° East 512 589 23,500  Level FlightAware ADS-B
Thu 04:32:52 AM 61.1420 -147.2480 99° East 512 589 23,500  Level FlightAware ADS-B
Thu 04:33:32 AM 61.1300 -147.0840 99° East 512 589 23,500  Level FlightAware ADS-B
Thu 04:34:12 AM 61.1170 -146.9190 99° East 512 589 23,500 4,229 Level FlightAware ADS-B
Thu 04:35:17 AM 61.0500 -146.4500 99° East 520 598 30,900 4,368 Climbing Anchorage Center
Thu 04:36:17 AM 61.0167 -146.1500 103° East 520 598 32,600 1,041 Climbing Anchorage Center
Thu 04:37:18 AM 61.0000 -145.8667 97° East 510 587 33,000 198 Climbing Anchorage Center
Thu 04:38:18 AM 60.9667 -145.5833 104° East 500 575 33,000  Level Anchorage Center
Thu 04:39:18 AM 60.9333 -145.3000 103° East 500 575 33,000  Level Anchorage Center
Thu 04:40:18 AM 60.9000 -145.0167 103° East 500 575 33,000  Level Anchorage Center
Thu 04:41:18 AM 60.8833 -144.7333 97° East 500 575 33,000  Level Anchorage Center
Thu 04:42:18 AM 60.8500 -144.4500 103° East 500 575 33,000  Level Anchorage Center
Thu 04:43:18 AM 60.8167 -144.1667 103° East 490 564 33,000  Level Anchorage Center
Thu 04:44:19 AM 60.7833 -143.8833 103° East 500 575 33,000  Level Anchorage Center
Thu 04:45:19 AM 60.7500 -143.6167 104° East 500 575 33,000  Level Anchorage Center
Thu 04:46:19 AM 60.7167 -143.3333 103° East 500 575 33,000  Level Anchorage Center
Thu 04:47:19 AM 60.6833 -143.0500 103° East 500 575 33,000  Level Anchorage Center
Thu 04:48:19 AM 60.6333 -142.7667 110° East 500 575 33,000  Level Anchorage Center
Thu 04:49:19 AM 60.6000 -142.4833 103° East 500 575 33,000  Level Anchorage Center
Thu 04:50:19 AM 60.5667 -142.2167 104° East 500 575 33,000  Level Anchorage Center
Thu 04:51:19 AM 60.5333 -141.9333 103° East 500 575 33,000  Level Anchorage Center
Thu 04:52:19 AM 60.5000 -141.6667 104° East 510 587 33,000  Level Anchorage Center
Thu 04:53:19 AM 60.4500 -141.3833 110° East 500 575 33,000  Level Anchorage Center
Thu 04:54:19 AM 60.4167 -141.1167 104° East 510 587 33,000  Level Anchorage Center
Thu 04:55:19 AM 60.3833 -140.8333 103° East 500 575 33,000  Level Anchorage Center
Thu 04:56:20 AM 60.3500 -140.5667 104° East 500 575 33,000  Level Anchorage Center
Thu 04:57:20 AM 60.3000 -140.3000 111° Southeast 500 575 33,000  Level Anchorage Center
Thu 04:58:20 AM 60.2667 -140.0333 104° East 500 575 33,000  Level Anchorage Center
Thu 04:59:20 AM 60.2167 -139.7500 109° East 500 575 33,000  Level Anchorage Center
Thu 05:00:20 AM 60.1833 -139.4833 104° East 490 564 33,000  Level Anchorage Center
Thu 05:01:20 AM 60.1333 -139.2333 112° Southeast 470 541 33,000  Level Anchorage Center
Thu 05:02:21 AM 60.1000 -138.9833 105° East 480 552 33,000  Level Anchorage Center
Thu 05:03:21 AM 60.0667 -138.7167 104° East 480 552 33,000  Level Anchorage Center
Thu 05:04:21 AM 60.0333 -138.4500 104° East 480 552 33,000  Level Anchorage Center
Thu 05:05:20 AM 60.0167 -138.2000 97° East 470 541 33,000  Level Anchorage Center
Thu 05:07:00 AM 59.9634 -137.7509 103° East  Level FlightAware Approximate
Thu 05:14:00 AM 59.7232 -135.8809 104° East  Level FlightAware Approximate
Thu 05:15:00 AM 59.6868 -135.6160 105° East  Level FlightAware Approximate
Thu 05:16:00 AM 59.6498 -135.3517 105° East  Level FlightAware Approximate
Thu 05:17:00 AM 59.6122 -135.0879 106° East  Level FlightAware Approximate
Thu 05:18:00 AM 59.5742 -134.8248 106° East  Level FlightAware Approximate
Thu 05:19:00 AM 59.5356 -134.5622 106° East  Level FlightAware Approximate
Thu 05:20:00 AM 59.4965 -134.3003 106° East  Level FlightAware Approximate
Thu 05:21:00 AM 59.4569 -134.0390 107° East  Level FlightAware Approximate
Thu 05:22:00 AM 59.4167 -133.7783 107° East  Level FlightAware Approximate
Thu 05:23:00 AM 59.3760 -133.5182 107° East  Level FlightAware Approximate
Thu 05:24:00 AM 59.3349 -133.2587 107° East  Level FlightAware Approximate
Thu 05:25:00 AM 59.2932 -132.9999 107° East  Level FlightAware Approximate
Thu 05:26:00 AM 59.2510 -132.7417 108° East  Level FlightAware Approximate
Thu 05:27:00 AM 59.2082 -132.4841 108° East  Level FlightAware Approximate
Thu 05:28:00 AM 59.1650 -132.2272 108° East  Level FlightAware Approximate
Thu 05:29:00 AM 59.1213 -131.9710 108° East  Level FlightAware Approximate
Thu 05:30:00 AM 59.0770 -131.7154 109° East  Level FlightAware Approximate
Thu 05:31:00 AM 59.0323 -131.4605 109° East  Level FlightAware Approximate
Thu 05:32:00 AM 58.9871 -131.2062 109° East  Level FlightAware Approximate
Thu 05:33:00 AM 58.9413 -130.9526 109° East  Level FlightAware Approximate
Thu 05:34:00 AM 58.8951 -130.6997 109° East  Level FlightAware Approximate
Thu 05:35:00 AM 58.8484 -130.4474 110° East  Level FlightAware Approximate
Thu 05:36:00 AM 58.8012 -130.1959 110° East  Level FlightAware Approximate
Thu 05:37:00 AM 58.7535 -129.9450 110° East  Level FlightAware Approximate
Thu 05:38:00 AM 58.7053 -129.6948 110° East  Level FlightAware Approximate
Thu 05:39:00 AM 58.6566 -129.4454 110° East  Level FlightAware Approximate
Thu 05:40:00 AM 58.6075 -129.1966 111° Southeast  Level FlightAware Approximate
Thu 05:41:00 AM 58.5578 -128.9485 111° Southeast  Level FlightAware Approximate
Thu 05:42:00 AM 58.5077 -128.7011 111° Southeast  Level FlightAware Approximate
Thu 05:43:00 AM 58.4571 -128.4544 111° Southeast  Level FlightAware Approximate
Thu 05:44:00 AM 58.4061 -128.2085 112° Southeast  Level FlightAware Approximate
Thu 05:45:00 AM 58.3546 -127.9632 112° Southeast  Level FlightAware Approximate
Thu 05:46:00 AM 58.3026 -127.7187 112° Southeast  Level FlightAware Approximate
Thu 05:47:00 AM 58.2501 -127.4749 112° Southeast  Level FlightAware Approximate
Thu 05:48:00 AM 58.1972 -127.2318 112° Southeast  Level FlightAware Approximate
Thu 05:49:00 AM 58.1438 -126.9895 113° Southeast  Level FlightAware Approximate
Thu 05:50:00 AM 58.0900 -126.7478 113° Southeast  Level FlightAware Approximate
Thu 05:51:00 AM 58.0357 -126.5069 113° Southeast  Level FlightAware Approximate
Thu 05:52:00 AM 57.9811 -126.2667 113° Southeast  Level FlightAware Approximate
Thu 05:53:00 AM 57.9263 -126.0270 113° Southeast  Level FlightAware Approximate
Thu 05:54:00 AM 57.8710 -125.7879 113° Southeast  Level FlightAware Approximate
Thu 05:55:00 AM 57.8153 -125.5497 114° Southeast  Level FlightAware Approximate
Thu 05:56:00 AM 57.7592 -125.3121 114° Southeast  Level FlightAware Approximate
Thu 05:57:00 AM 57.7026 -125.0754 114° Southeast  Level FlightAware Approximate
Thu 05:58:00 AM 57.6455 -124.8393 114° Southeast  Level FlightAware Approximate
Thu 05:59:00 AM 57.5881 -124.6040 114° Southeast  Level FlightAware Approximate
Thu 05:59:23 AM 57.5167 -124.4167 115° Southeast 540 621 33,000  Level Edmonton Center
Thu 06:00:00 AM 57.5301 -124.3694 115° Southeast  Level FlightAware Approximate
Thu 06:00:23 AM 57.4500 -124.1500 115° Southeast 540 621 33,000  Level Edmonton Center
Thu 06:01:00 AM 57.4718 -124.1356 115° Southeast  Level FlightAware Approximate
Thu 06:01:23 AM 57.3833 -123.8833 115° Southeast 530 610 33,000  Level Edmonton Center
Thu 06:02:00 AM 57.4130 -123.9025 115° Southeast  Level FlightAware Approximate
Thu 06:02:23 AM 57.3167 -123.6667 120° Southeast 530 610 33,000  Level Edmonton Center
Thu 06:03:00 AM 57.3538 -123.6702 115° Southeast  Level FlightAware Approximate
Thu 06:03:23 AM 57.2667 -123.4000 109° East 530 610 33,000  Level Edmonton Center
Thu 06:04:00 AM 57.2942 -123.4387 115° Southeast  Level FlightAware Approximate
Thu 06:04:23 AM 57.2000 -123.1833 120° Southeast 530 610 33,000  Level Edmonton Center
Thu 06:05:23 AM 57.1333 -122.9167 115° Southeast 530 610 33,000  Level Edmonton Center
Thu 06:06:23 AM 57.0667 -122.6667 116° Southeast 530 610 33,000  Level Edmonton Center
Thu 06:07:23 AM 57.0000 -122.4333 118° Southeast 530 610 33,000  Level Edmonton Center
Thu 06:08:23 AM 56.9333 -122.1667 115° Southeast 540 621 33,000  Level Edmonton Center
Thu 06:09:23 AM 56.8667 -121.9167 116° Southeast 540 621 33,000  Level Edmonton Center
Thu 06:10:23 AM 56.8000 -121.7000 119° Southeast 540 621 33,000  Level Edmonton Center
Thu 06:11:23 AM 56.7167 -121.4333 120° Southeast 540 621 33,000  Level Edmonton Center
Thu 06:12:23 AM 56.6500 -121.1833 116° Southeast 550 633 33,000  Level Edmonton Center
Thu 06:13:23 AM 56.5833 -120.9333 116° Southeast 550 633 33,000  Level Edmonton Center
Thu 06:14:23 AM 56.5000 -120.6833 121° Southeast 550 633 33,000  Level Edmonton Center
Thu 06:15:23 AM 56.4333 -120.4333 116° Southeast 550 633 33,000  Level Edmonton Center
Thu 06:16:23 AM 56.3667 -120.1833 116° Southeast 550 633 33,000  Level Edmonton Center
Thu 06:17:23 AM 56.2833 -119.9333 121° Southeast 550 633 33,000  Level Edmonton Center
Thu 06:18:23 AM 56.2167 -119.7167 119° Southeast 550 633 33,000  Level Edmonton Center
Thu 06:19:23 AM 56.1333 -119.4667 121° Southeast 550 633 33,000  Level Edmonton Center
Thu 06:20:23 AM 56.0667 -119.2333 117° Southeast 550 633 33,000  Level Edmonton Center
Thu 06:21:23 AM 56.0000 -118.9833 115° Southeast 550 633 33,000  Level Edmonton Center
Thu 06:22:23 AM 55.9167 -118.7333 121° Southeast 550 633 33,000  Level Edmonton Center
Thu 06:23:23 AM 55.8500 -118.5000 117° Southeast 540 621 33,000  Level Edmonton Center
Thu 06:24:23 AM 55.7667 -118.2833 124° Southeast 550 633 33,000  Level Edmonton Center
Thu 06:25:23 AM 55.6833 -118.0500 122° Southeast 540 621 33,000  Level Edmonton Center
Thu 06:26:23 AM 55.6167 -117.8000 115° Southeast 540 621 33,000  Level Edmonton Center
Thu 06:27:23 AM 55.5333 -117.5667 122° Southeast 540 621 33,000  Level Edmonton Center
Thu 06:28:23 AM 55.4500 -117.3333 122° Southeast 540 621 33,000  Level Edmonton Center
Thu 06:29:23 AM 55.3833 -117.0833 115° Southeast 540 621 33,000  Level Edmonton Center
Thu 06:30:23 AM 55.3000 -116.8833 126° Southeast 540 621 33,000  Level Edmonton Center
Thu 06:31:23 AM 55.2333 -116.6500 117° Southeast 540 621 33,000  Level Edmonton Center
Thu 06:32:23 AM 55.1500 -116.4167 122° Southeast 540 621 33,000  Level Edmonton Center
Thu 06:37:42 AM 54.7440 -115.2100 122° Southeast 542 624 33,000  Level FlightAware ADS-B
Thu 06:38:27 AM 54.6870 -115.0550 122° Southeast 543 625 33,000  Level FlightAware ADS-B
Thu 06:39:07 AM 54.6320 -114.9090 123° Southeast 540 621 33,000  Level FlightAware ADS-B
Thu 06:39:52 AM 54.5700 -114.7420 123° Southeast 541 623 33,000  Level FlightAware ADS-B
Thu 06:40:27 AM 54.5190 -114.6060 123° Southeast 542 624 33,000  Level FlightAware ADS-B
Thu 06:41:17 AM 54.4550 -114.4390 123° Southeast 544 626 33,000  Level FlightAware ADS-B
Thu 06:41:47 AM 54.4080 -114.3140 123° Southeast 545 627 33,000  Level FlightAware ADS-B
Thu 06:42:37 AM 54.3390 -114.1360 124° Southeast 545 627 33,000  Level FlightAware ADS-B
Thu 06:43:22 AM 54.2780 -113.9750 123° Southeast 549 632 33,000  Level FlightAware ADS-B
Thu 06:44:02 AM 54.2200 -113.8260 124° Southeast 549 632 33,000  Level FlightAware ADS-B
Thu 06:44:42 AM 54.1640 -113.6830 124° Southeast 549 632 33,000  Level FlightAware ADS-B
Thu 06:45:27 AM 54.1000 -113.5200 124° Southeast 549 632 33,000  Level FlightAware ADS-B
Thu 06:46:07 AM 54.0420 -113.3750 124° Southeast 548 631 33,000  Level FlightAware ADS-B
Thu 06:46:47 AM 53.9870 -113.2350 124° Southeast 548 631 33,000  Level FlightAware ADS-B
Thu 06:47:32 AM 53.9210 -113.0710 124° Southeast 547 629 33,000  Level FlightAware ADS-B
Thu 06:48:12 AM 53.8650 -112.9330 124° Southeast 547 629 33,000  Level FlightAware ADS-B
Thu 06:48:57 AM 53.8000 -112.7710 124° Southeast 544 626 33,000  Level FlightAware ADS-B
Thu 06:49:37 AM 53.7430 -112.6330 125° Southeast 545 627 33,000  Level FlightAware ADS-B
Thu 06:50:22 AM 53.6790 -112.4740 124° Southeast 546 628 33,000  Level FlightAware ADS-B
Thu 06:51:02 AM 53.6200 -112.3310 125° Southeast 547 629 33,000  Level FlightAware ADS-B
Thu 06:51:42 AM 53.5610 -112.1910 125° Southeast 547 629 33,000  Level FlightAware ADS-B
Thu 06:52:22 AM 53.5020 -112.0490 125° Southeast 547 629 33,000  Level FlightAware ADS-B
Thu 06:53:07 AM 53.4370 -111.8930 125° Southeast 545 627 33,000  Level FlightAware ADS-B
Thu 06:54:07 AM 53.3520 -111.6930 125° Southeast 544 626 33,000  Level FlightAware ADS-B
Thu 06:54:47 AM 53.2910 -111.5490 125° Southeast 544 626 33,000  Level FlightAware ADS-B
Thu 06:56:12 AM 53.1710 -111.2700 126° Southeast 550 633 33,000  Level FlightAware ADS-B
Thu 06:57:07 AM 53.0970 -111.0940 125° Southeast 550 633 33,000  Level FlightAware ADS-B
Thu 06:57:42 AM 53.0360 -110.9580 127° Southeast 549 632 33,000  Level FlightAware ADS-B
Thu 06:58:32 AM 52.9700 -110.7970 124° Southeast 33,000  Level FlightAware ADS-B
Thu 06:59:23 AM 52.8667 -110.6000 124° Southeast 540 621 33,000  Level Edmonton Center
Thu 07:00:23 AM 52.8000 -110.3833 117° Southeast 540 621 33,000  Level Edmonton Center
Thu 07:01:23 AM 52.7167 -110.1500 120° Southeast 540 621 33,000  Level Edmonton Center
Thu 07:02:23 AM 52.6500 -109.9500 119° Southeast 540 621 33,000  Level Edmonton Center
Thu 07:03:23 AM 52.5667 -109.7500 124° Southeast 540 621 33,000  Level Edmonton Center
Thu 07:04:23 AM 52.4833 -109.5167 120° Southeast 540 621 33,000  Level Edmonton Center
Thu 07:05:23 AM 52.4000 -109.3167 124° Southeast 540 621 33,000  Level Edmonton Center
Thu 07:06:23 AM 52.3333 -109.1167 119° Southeast 530 610 33,000  Level Edmonton Center
Thu 07:07:23 AM 52.2500 -108.8833 120° Southeast 540 621 33,000  Level Edmonton Center
Thu 07:08:23 AM 52.1667 -108.6833 124° Southeast 540 621 33,000  Level Edmonton Center
Thu 07:09:23 AM 52.1000 -108.4500 115° Southeast 540 621 33,000  Level Edmonton Center
Thu 07:10:23 AM 52.0167 -108.2500 124° Southeast 530 610 33,000  Level Edmonton Center
Thu 07:11:23 AM 51.9333 -108.0667 126° Southeast 530 610 33,000  Level Edmonton Center
Thu 07:12:23 AM 51.8667 -107.8333 115° Southeast 530 610 33,000  Level Edmonton Center
Thu 07:13:23 AM 51.7833 -107.6333 124° Southeast 530 610 33,000  Level Edmonton Center
Thu 07:14:23 AM 51.7000 -107.4500 126° Southeast 530 610 33,000  Level Edmonton Center
Thu 07:15:23 AM 51.6167 -107.2500 124° Southeast 530 610 33,000  Level Edmonton Center
Thu 07:20:47 AM 51.3010 -106.3870 124° Southeast 527 606 33,000  Level FlightAware ADS-B
Thu 07:21:47 AM 51.2160 -106.1790 123° Southeast 527 606 33,000  Level FlightAware ADS-B
Thu 07:22:32 AM 51.1510 -106.0250 124° Southeast 526 605 33,000  Level FlightAware ADS-B
Thu 07:23:07 AM 51.1100 -105.9270 124° Southeast 526 605 33,000  Level FlightAware ADS-B
Thu 07:23:57 AM 51.0530 -105.7890 123° Southeast 527 606 33,000  Level FlightAware ADS-B
Thu 07:24:32 AM 51.0050 -105.6750 124° Southeast 527 606 33,000  Level FlightAware ADS-B
Thu 07:25:12 AM 50.9500 -105.5470 124° Southeast 527 606 33,000  Level FlightAware ADS-B
Thu 07:25:52 AM 50.8990 -105.4280 124° Southeast 528 608 33,000  Level FlightAware ADS-B
Thu 07:26:42 AM 50.7990 -105.1940 124° Southeast 528 608 33,000  Level FlightAware ADS-B
Thu 07:27:27 AM 50.7410 -105.0610 125° Southeast 528 608 33,000  Level FlightAware ADS-B
Thu 07:28:07 AM 50.6990 -104.9630 124° Southeast 529 609 33,000  Level FlightAware ADS-B
Thu 07:28:47 AM 50.6270 -104.8260 130° Southeast 534 615 33,000  Level FlightAware ADS-B
Thu 07:29:27 AM 50.5730 -104.7390 134° Southeast 536 617 33,000  Level FlightAware ADS-B
Thu 07:30:07 AM 50.4900 -104.6070 135° Southeast 535 616 33,000  Level FlightAware ADS-B
Thu 07:30:57 AM 50.4240 -104.5010 134° Southeast 534 615 33,000  Level FlightAware ADS-B
Thu 07:31:37 AM 50.3620 -104.4030 135° Southeast 533 613 33,000  Level FlightAware ADS-B
Thu 07:32:17 AM 50.2770 -104.2690 135° Southeast 535 616 33,000  Level FlightAware ADS-B
Thu 07:32:52 AM 50.2330 -104.1980 134° Southeast 536 617 33,000  Level FlightAware ADS-B
Thu 07:33:42 AM 50.1710 -104.1030 136° Southeast 538 619 33,000  Level FlightAware ADS-B
Thu 07:34:22 AM 50.1120 -104.0090 134° Southeast 539 620 33,000  Level FlightAware ADS-B
Thu 07:35:02 AM 50.0530 -103.9140 134° Southeast 539 620 33,000  Level FlightAware ADS-B
Thu 07:35:42 AM 49.9940 -103.8190 134° Southeast 539 620 33,000  Level FlightAware ADS-B
Thu 07:36:32 AM 49.9210 -103.7010 134° Southeast 539 620 33,000  Level FlightAware ADS-B
Thu 07:37:12 AM 49.8620 -103.6060 134° Southeast 539 620 33,000  Level FlightAware ADS-B
Thu 07:37:57 AM 49.5640 -103.1730 137° Southeast 532 612 33,000  Level FlightAware ADS-B
Thu 07:38:37 AM 49.4910 -103.0640 136° Southeast 531 611 33,000  Level FlightAware ADS-B
Thu 07:39:17 AM 49.4300 -102.9700 135° Southeast 531 611 33,000  Level FlightAware ADS-B
Thu 07:39:57 AM 49.3520 -102.8570 137° Southeast 527 606 33,000  Level FlightAware ADS-B
Thu 07:40:42 AM 49.2700 -102.7360 136° Southeast 526 605 33,000  Level FlightAware ADS-B
Thu 07:41:22 AM 49.2010 -102.6330 136° Southeast 526 605 33,000  Level FlightAware ADS-B
Thu 07:42:07 AM 49.1290 -102.5220 135° Southeast 521 600 33,000  Level FlightAware ADS-B
Thu 07:42:47 AM 49.0750 -102.3950 123° Southeast 514 592 33,000  Level FlightAware ADS-B
Thu 07:43:42 AM 49.0160 -102.2280 118° Southeast 513 590 33,000  Level FlightAware ADS-B
Thu 07:44:22 AM 48.9780 -102.1190 118° Southeast 513 590 33,000  Level FlightAware ADS-B
Thu 07:45:22 AM 48.9000 -101.9060 119° Southeast 511 588 33,000  Level FlightAware ADS-B
Thu 07:45:57 AM 48.8620 -101.8010 119° Southeast 513 590 33,000  Level FlightAware ADS-B
Thu 07:46:47 AM 48.8020 -101.6340 119° Southeast 513 590 33,000  Level FlightAware ADS-B
Thu 07:47:27 AM 48.7620 -101.5220 118° Southeast 514 592 33,000  Level FlightAware ADS-B
Thu 07:48:07 AM 48.7240 -101.4140 118° Southeast 514 592 33,000  Level FlightAware ADS-B
Thu 07:48:57 AM 48.6530 -101.2280 120° Southeast 513 590 33,000  Level FlightAware ADS-B
Thu 07:49:27 AM 48.6190 -101.1380 120° Southeast 511 588 33,000  Level FlightAware ADS-B
Thu 07:50:12 AM 48.5730 -101.0120 119° Southeast 511 588 33,000  Level FlightAware ADS-B
Thu 07:51:17 AM 48.4910 -100.7960 120° Southeast 510 587 33,000  Level FlightAware ADS-B
Thu 07:51:57 AM 48.4450 -100.6740 120° Southeast 509 586 33,000  Level FlightAware ADS-B
Thu 07:52:52 AM 48.3820 -100.5060 119° Southeast 511 588 33,000  Level FlightAware ADS-B
Thu 07:53:37 AM 48.3270 -100.3630 120° Southeast 510 587 33,000  Level FlightAware ADS-B
Thu 07:54:17 AM 48.2810 -100.2430 120° Southeast 510 587 33,000  Level FlightAware ADS-B
Thu 07:54:57 AM 48.2340 -100.1200 120° Southeast 510 587 33,000  Level FlightAware ADS-B
Thu 07:55:42 AM 48.1790 -99.9780 120° Southeast 508 585 33,000  Level FlightAware ADS-B
Thu 07:56:22 AM 48.1340 -99.8620 120° Southeast 505 581 33,000  Level FlightAware ADS-B
Thu 07:57:02 AM 48.0870 -99.7430 121° Southeast 503 579 33,000  Level FlightAware ADS-B
Thu 07:57:47 AM 48.0350 -99.6090 120° Southeast 501 577 33,000  Level FlightAware ADS-B
Thu 07:58:27 AM 47.9870 -99.4880 121° Southeast 501 577 33,000  Level FlightAware ADS-B
Thu 07:59:12 AM 47.9340 -99.3530 120° Southeast 498 573 33,000  Level FlightAware ADS-B
Thu 07:59:52 AM 47.8860 -99.2340 121° Southeast 496 571 33,000  Level FlightAware ADS-B
Thu 08:00:32 AM 47.8390 -99.1170 121° Southeast 495 570 33,000  Level FlightAware ADS-B
Thu 08:01:17 AM 47.7890 -98.9910 121° Southeast 492 566 33,000  Level FlightAware ADS-B
Thu 08:01:57 AM 47.7420 -98.8740 121° Southeast 489 563 33,000  Level FlightAware ADS-B
Thu 08:02:42 AM 47.6880 -98.7420 121° Southeast 489 563 33,000  Level FlightAware ADS-B
Thu 08:03:17 AM 47.6490 -98.6450 121° Southeast 490 564 33,000  Level FlightAware ADS-B
Thu 08:04:02 AM 47.5970 -98.5180 121° Southeast 490 564 33,000  Level FlightAware ADS-B
Thu 08:04:42 AM 47.5570 -98.4210 121° Southeast 490 564 33,000  Level FlightAware ADS-B
Thu 08:05:22 AM 47.5180 -98.3230 120° Southeast 490 564 33,000  Level FlightAware ADS-B
Thu 08:06:07 AM 47.4470 -98.1560 122° Southeast 486 559 33,000  Level FlightAware ADS-B
Thu 08:06:47 AM 47.4030 -98.0490 121° Southeast 483 556 33,000  Level FlightAware ADS-B
Thu 08:07:27 AM 47.3550 -97.9350 122° Southeast 481 554 33,000  Level FlightAware ADS-B
Thu 08:08:12 AM 47.3070 -97.8200 122° Southeast 477 549 33,000  Level FlightAware ADS-B
Thu 08:08:52 AM 47.2560 -97.6990 122° Southeast 475 547 33,000  Level FlightAware ADS-B
Thu 08:09:37 AM 47.2040 -97.5750 122° Southeast 471 542 33,000  Level FlightAware ADS-B
Thu 08:10:17 AM 47.1570 -97.4650 122° Southeast 467 537 33,000  Level FlightAware ADS-B
Thu 08:11:02 AM 47.1070 -97.3490 122° Southeast 463 533 33,000  Level FlightAware ADS-B
Thu 08:11:42 AM 47.0620 -97.2430 122° Southeast 459 528 33,000  Level FlightAware ADS-B
Thu 08:12:37 AM 47.0000 -97.0990 122° Southeast 452 520 33,000  Level FlightAware ADS-B
Thu 08:13:22 AM 46.9500 -96.9820 122° Southeast 444 511 33,000  Level FlightAware ADS-B
Thu 08:14:02 AM 46.9060 -96.8820 123° Southeast 439 505 33,000  Level FlightAware ADS-B
Thu 08:14:42 AM 46.8630 -96.7840 123° Southeast 436 502 33,000  Level FlightAware ADS-B
Thu 08:15:27 AM 46.8150 -96.6740 122° Southeast 433 498 33,000  Level FlightAware ADS-B
Thu 08:16:07 AM 46.7710 -96.5740 123° Southeast 432 497 33,000  Level FlightAware ADS-B
Thu 08:16:52 AM 46.7250 -96.4690 123° Southeast 433 498 33,000  Level FlightAware ADS-B
Thu 08:17:32 AM 46.6790 -96.3660 123° Southeast 435 501 33,000  Level FlightAware ADS-B
Thu 08:18:12 AM 46.6350 -96.2670 123° Southeast 436 502 33,000  Level FlightAware ADS-B
Thu 08:18:57 AM 46.5880 -96.1600 123° Southeast 436 502 33,000  Level FlightAware ADS-B
Thu 08:19:37 AM 46.5440 -96.0630 123° Southeast 436 502 33,000  Level FlightAware ADS-B
Thu 08:20:22 AM 46.4930 -95.9490 123° Southeast 436 502 33,000  Level FlightAware ADS-B
Thu 08:21:02 AM 46.4510 -95.8540 123° Southeast 437 503 33,000  Level FlightAware ADS-B
Thu 08:21:42 AM 46.4040 -95.7520 124° Southeast 437 503 33,000  Level FlightAware ADS-B
Thu 08:22:27 AM 46.3580 -95.6500 123° Southeast 436 502 33,000  Level FlightAware ADS-B
Thu 08:23:07 AM 46.3120 -95.5490 123° Southeast 436 502 33,000  Level FlightAware ADS-B
Thu 08:23:47 AM 46.2670 -95.4500 123° Southeast 436 502 33,000  Level FlightAware ADS-B
Thu 08:24:32 AM 46.2160 -95.3390 124° Southeast 437 503 33,000  Level FlightAware ADS-B
Thu 08:25:12 AM 46.1710 -95.2420 124° Southeast 437 503 33,000  Level FlightAware ADS-B
Thu 08:25:57 AM 46.1220 -95.1350 123° Southeast 437 503 33,000  Level FlightAware ADS-B
Thu 08:26:37 AM 46.0770 -95.0380 124° Southeast 439 505 33,000  Level FlightAware ADS-B
Thu 08:27:17 AM 46.0320 -94.9410 124° Southeast 439 505 33,000  Level FlightAware ADS-B
Thu 08:28:02 AM 45.9790 -94.8290 124° Southeast 438 504 33,000  Level FlightAware ADS-B
Thu 08:28:42 AM 45.9370 -94.7380 124° Southeast 439 505 33,000  Level FlightAware ADS-B
Thu 08:29:27 AM 45.8830 -94.6250 124° Southeast 440 506 33,000  Level FlightAware ADS-B
Thu 08:30:07 AM 45.8380 -94.5290 124° Southeast 441 507 33,000  Level FlightAware ADS-B
Thu 08:30:47 AM 45.7910 -94.4310 124° Southeast 442 509 33,000  Level FlightAware ADS-B
Thu 08:31:32 AM 45.7420 -94.3280 124° Southeast 441 507 33,000  Level FlightAware ADS-B
Thu 08:32:12 AM 45.6950 -94.2280 124° Southeast 442 509 33,000  Level FlightAware ADS-B
Thu 08:32:57 AM 45.6430 -94.1190 124° Southeast 443 510 33,000  Level FlightAware ADS-B
Thu 08:33:37 AM 45.5970 -94.0240 125° Southeast 445 512 33,000  Level FlightAware ADS-B
Thu 08:34:17 AM 45.5490 -93.9250 125° Southeast 446 513 33,000  Level FlightAware ADS-B
Thu 08:35:02 AM 45.4970 -93.8180 125° Southeast 447 514 33,000  Level FlightAware ADS-B
Thu 08:35:42 AM 45.4500 -93.7210 125° Southeast 447 514 33,000  Level FlightAware ADS-B
Thu 08:36:22 AM 45.4020 -93.6230 125° Southeast 447 514 33,000  Level FlightAware ADS-B
Thu 08:37:07 AM 45.3490 -93.5140 125° Southeast 447 514 33,000  Level FlightAware ADS-B
Thu 08:37:47 AM 45.3020 -93.4190 125° Southeast 447 514 33,000  Level FlightAware ADS-B
Thu 08:38:27 AM 45.2540 -93.3220 125° Southeast 447 514 33,000  Level FlightAware ADS-B
Thu 08:39:12 AM 45.2050 -93.2230 125° Southeast 448 516 33,000  Level FlightAware ADS-B
Thu 08:39:57 AM 45.1480 -93.1070 125° Southeast 450 518 33,000  Level FlightAware ADS-B
Thu 08:40:37 AM 45.0990 -93.0090 125° Southeast 451 519 33,000  Level FlightAware ADS-B
Thu 08:41:17 AM 45.0550 -92.9200 125° Southeast 452 520 33,000  Level FlightAware ADS-B
Thu 08:42:02 AM 45.0040 -92.8190 126° Southeast 454 522 33,000  Level FlightAware ADS-B
Thu 08:42:37 AM 44.9570 -92.7270 126° Southeast 454 522 33,000  Level FlightAware ADS-B
Thu 08:43:27 AM 44.8930 -92.5990 125° Southeast 456 525 33,000  Level FlightAware ADS-B
Thu 08:44:07 AM 44.8440 -92.5040 126° Southeast 459 528 33,000  Level FlightAware ADS-B
Thu 08:44:52 AM 44.7820 -92.4100 133° Southeast 442 509 33,000  Level FlightAware ADS-B
Thu 08:45:32 AM 44.7170 -92.3380 142° Southeast 444 511 33,000  Level FlightAware ADS-B
Thu 08:46:12 AM 44.6520 -92.2650 141° Southeast 448 516 33,000  Level FlightAware ADS-B
Thu 08:46:52 AM 44.5890 -92.1940 141° Southeast 449 517 33,000  Level FlightAware ADS-B
Thu 08:47:37 AM 44.5130 -92.1080 141° Southeast 448 516 33,000  Level FlightAware ADS-B
Thu 08:48:22 AM 44.4430 -92.0290 141° Southeast 448 516 33,000  Level FlightAware ADS-B
Thu 08:49:02 AM 44.3780 -91.9580 142° Southeast 448 516 33,000  Level FlightAware ADS-B
Thu 08:49:42 AM 44.3120 -91.8860 142° Southeast 450 518 33,000  Level FlightAware ADS-B
Thu 08:50:27 AM 44.2400 -91.8070 142° Southeast 454 522 33,000  Level FlightAware ADS-B
Thu 08:51:07 AM 44.1770 -91.7210 136° Southeast 464 534 33,000  Level FlightAware ADS-B
Thu 08:51:52 AM 44.1180 -91.6160 128° Southeast 476 548 33,000  Level FlightAware ADS-B
Thu 08:52:22 AM 44.0830 -91.5380 122° Southeast 482 555 33,000  Level FlightAware ADS-B
Thu 08:53:02 AM 44.0380 -91.4310 120° Southeast 486 559 33,000  Level FlightAware ADS-B
Thu 08:53:42 AM 43.9930 -91.3200 119° Southeast 489 563 33,000  Level FlightAware ADS-B
Thu 08:54:27 AM 43.9430 -91.1990 120° Southeast 490 564 33,000 -424 Level FlightAware ADS-B
Thu 08:55:07 AM 43.8960 -91.0870 120° Southeast 486 559 32,400 -1,129 Descending FlightAware ADS-B
Thu 08:55:52 AM 43.8460 -90.9670 120° Southeast 491 565 31,400 -988 Descending FlightAware ADS-B
Thu 08:56:32 AM 43.8010 -90.8590 120° Southeast 492 566 31,000 -300 Descending FlightAware ADS-B
Thu 08:57:12 AM 43.7560 -90.7520 120° Southeast 497 572 31,000 -141 Level FlightAware ADS-B
Thu 08:57:57 AM 43.7020 -90.6250 120° Southeast 489 563 30,800 -776 Descending FlightAware ADS-B
Thu 08:58:37 AM 43.6560 -90.5180 121° Southeast 488 562 29,900 -1,440 Descending FlightAware ADS-B
Thu 08:59:12 AM 43.6180 -90.4280 120° Southeast 489 563 29,000 -1,440 Descending FlightAware ADS-B
Thu 08:59:52 AM 43.5750 -90.3270 120° Southeast 482 555 28,100 -1,600 Descending FlightAware ADS-B
Thu 09:00:42 AM 43.5150 -90.1870 121° Southeast 475 547 26,600 -1,624 Descending FlightAware ADS-B
Thu 09:01:17 AM 43.4790 -90.1040 121° Southeast 469 540 25,800 -1,482 Descending FlightAware ADS-B
Thu 09:02:07 AM 43.4210 -89.9690 121° Southeast 456 525 24,500 -1,600 Descending FlightAware ADS-B
Thu 09:02:47 AM 43.3790 -89.8740 121° Southeast 452 520 23,400 -1,482 Descending FlightAware ADS-B
Thu 09:03:32 AM 43.3340 -89.7700 121° Southeast 444 511 22,400 -1,341 Descending FlightAware ADS-B
Thu 09:04:12 AM 43.2890 -89.6670 121° Southeast 435 501 21,500 -1,341 Descending FlightAware ADS-B
Thu 09:04:57 AM 43.2430 -89.5630 121° Southeast 423 487 20,500 -1,482 Descending FlightAware ADS-B
Thu 09:05:37 AM 43.2030 -89.4710 121° Southeast 415 478 19,400 -1,694 Descending FlightAware ADS-B
Thu 09:06:22 AM 43.1590 -89.3750 122° Southeast 406 467 18,100 -1,765 Descending FlightAware ADS-B
Thu 09:07:02 AM 43.0950 -89.3200 148° Southeast 379 436 16,900 -1,725 Descending FlightAware ADS-B
Thu 09:07:42 AM 43.0320 -89.2940 163° South 370 426 15,800 -1,725 Descending FlightAware ADS-B
Thu 09:08:22 AM 42.9680 -89.2680 163° South 360 414 14,600 -1,835 Descending FlightAware ADS-B
Thu 09:09:07 AM 42.8940 -89.2390 164° South 351 404 13,200 -1,267 Descending FlightAware ADS-B
Thu 09:09:52 AM 42.8290 -89.2130 164° South 322 371 12,700 -353 Descending FlightAware ADS-B
Thu 09:10:32 AM 42.7780 -89.1840 157° South 327 376 12,700  Level FlightAware ADS-B
Thu 09:10:47 AM 42.7620 -89.1630 136° Southeast 335 386 12,700  Level FlightAware ADS-B
Thu 09:11:27 AM 42.7200 -89.0900 128° Southeast 335 386 12,700  Level FlightAware ADS-B
Thu 09:12:12 AM 42.6770 -89.0160 128° Southeast 313 360 12,700  Level FlightAware ADS-B
Thu 09:12:52 AM 42.6420 -88.9560 128° Southeast 301 346 12,700 -375 Level FlightAware ADS-B
Thu 09:13:32 AM 42.6110 -88.9030 128° Southeast 282 325 12,200 -988 Descending FlightAware ADS-B
Thu 09:14:17 AM 42.5760 -88.8420 128° Southeast 271 312 11,300 -1,412 Descending FlightAware ADS-B
Thu 09:14:57 AM 42.5430 -88.7850 128° Southeast 278 320 10,200 -1,385 Descending FlightAware ADS-B
Thu 09:15:22 AM 42.5240 -88.7530 129° Southeast 278 320 9,800 -1,091 Descending FlightAware ADS-B
Thu 09:15:52 AM 42.5000 -88.7120 128° Southeast 277 319 9,200 -1,000 Descending FlightAware ADS-B
Thu 09:16:22 AM 42.4750 -88.6690 128° Southeast 278 320 8,800 -545 Descending FlightAware ADS-B
Thu 09:16:47 AM 42.4540 -88.6330 128° Southeast 274 315 8,700 -109 Descending FlightAware ADS-B
Thu 09:17:17 AM 42.4300 -88.5930 129° Southeast 274 315 8,700  Level FlightAware ADS-B
Thu 09:17:42 AM 42.4110 -88.5610 129° Southeast 271 312 8,700  Level FlightAware ADS-B
Thu 09:18:02 AM 42.3960 -88.5350 128° Southeast 270 311 8,700  Level FlightAware ADS-B
Thu 09:18:27 AM 42.3770 -88.4990 126° Southeast 275 316 8,700  Level FlightAware ADS-B
Thu 09:18:57 AM 42.3610 -88.4520 115° Southeast 260 299 8,700 -267 Level FlightAware ADS-B
Thu 09:19:12 AM 42.3520 -88.4350 126° Southeast 241 277 8,500 -960 Descending FlightAware ADS-B
Thu 09:19:22 AM 42.3450 -88.4290 148° Southeast 234 269 8,300 -1,440 Descending FlightAware ADS-B
Thu 09:19:37 AM 42.3290 -88.4240 167° South 231 266 7,900 -1,867 Descending FlightAware ADS-B
Thu 09:20:07 AM 42.2940 -88.4210 176° South 238 274 6,900 -1,309 Descending FlightAware ADS-B
Thu 09:20:32 AM 42.2660 -88.4180 175° South 238 274 6,700 -300 Descending FlightAware ADS-B
Thu 09:20:47 AM 42.2490 -88.4160 175° South 238 274 6,700  Level FlightAware ADS-B
Thu 09:21:12 AM 42.2230 -88.4140 177° South 238 274 6,700  Level FlightAware ADS-B
Thu 09:21:37 AM 42.1960 -88.4110 175° South 239 275 6,700  Level FlightAware ADS-B
Thu 09:21:57 AM 42.1740 -88.4080 174° South 236 272 6,700 -720 Level FlightAware ADS-B
Thu 09:22:27 AM 42.1400 -88.4040 175° South 236 272 6,100 -1,091 Descending FlightAware ADS-B
Thu 09:22:52 AM 42.1130 -88.4010 175° South 234 269 5,700 -686 Descending FlightAware ADS-B
Thu 09:23:02 AM 42.1030 -88.4000 176° South 238 274 5,700  Level FlightAware ADS-B
Thu 09:23:37 AM 42.0630 -88.3950 175° South 235 270 5,700 -100 Level FlightAware ADS-B
Thu 09:24:02 AM 42.0370 -88.3920 175° South 227 261 5,600 -764 Descending FlightAware ADS-B
Thu 09:24:32 AM 42.0090 -88.3790 161° South 227 261 5,000 -1,067 Descending FlightAware ADS-B
Thu 09:24:47 AM 42.0010 -88.3610 121° Southeast 229 264 4,800 -450 Descending FlightAware ADS-B
Thu 09:25:12 AM 41.9900 -88.3280 114° Southeast 229 264 4,700 -109 Descending FlightAware ADS-B
Thu 09:25:42 AM 41.9780 -88.2880 112° Southeast 229 264 4,700  Level FlightAware ADS-B
Thu 09:26:07 AM 41.9690 -88.2570 111° Southeast 231 266 4,700 150 Level FlightAware ADS-B
Thu 09:26:22 AM 41.9680 -88.2340 93° East 234 269 4,800 -667 Climbing FlightAware ADS-B
Thu 09:26:52 AM 41.9680 -88.1910 90° East 233 268 4,200 -1,200 Descending FlightAware ADS-B
Thu 09:27:22 AM 41.9680 -88.1500 90° East 219 252 3,600 -1,200 Descending FlightAware ADS-B
Thu 09:27:42 AM 41.9680 -88.1240 90° East 200 230 3,200 -1,091 Descending FlightAware ADS-B
Thu 09:28:17 AM 41.9690 -88.0820 88° East 180 207 2,600 -1,015 Descending FlightAware ADS-B
Thu 09:28:47 AM 41.9690 -88.0480 90° East 176 203 2,100 -840 Descending FlightAware ADS-B
Thu 09:29:07 AM 41.9690 -88.0320 90° East 170 196 1,900 -873 Descending FlightAware ADS-B
Thu 09:29:42 AM 41.9690 -87.9920 90° East 169 194 1,300 -1,029 Descending FlightAware ADS-B
Thu 09:30:17 AM 41.9690 -87.9530 90° East 169 194 700 -900 Descending FlightAware ADS-B
Thu 09:30:42 AM 41.9690 -87.9300 90° East 166 191 400 -360 Descending FlightAware ADS-B
Thu 09:31:07 AM 41.9690 -87.9050 90° East 166 191 400  Level FlightAware ADS-B

Login

Don't have an account? Register now (free) for customized features, flight alerts, and more!